createdAt,value
2019-04-25T00:00:51.623Z,77.98
2019-04-25T00:01:52.295Z,78.28
2019-04-25T00:02:51.633Z,78.42
2019-04-25T00:03:53.312Z,79.55
2019-04-25T00:04:51.648Z,79.04
2019-04-25T00:05:52.314Z,80.21
2019-04-25T00:06:52.129Z,80.10
2019-04-25T00:07:51.552Z,80.31
2019-04-25T00:08:51.600Z,80.10
2019-04-25T00:09:51.762Z,80.00
2019-04-25T00:10:51.778Z,80.31
2019-04-25T00:11:52.329Z,80.51
2019-04-25T00:12:51.801Z,80.62
2019-04-25T00:13:51.665Z,80.86
2019-04-25T00:14:51.457Z,80.10
2019-04-25T00:15:51.890Z,80.41
2019-04-25T00:16:51.851Z,79.69
2019-04-25T00:17:52.216Z,79.80
2019-04-25T00:18:51.774Z,78.97
2019-04-25T00:19:52.817Z,79.38
2019-04-25T00:20:52.236Z,79.69
2019-04-25T00:21:51.671Z,79.49
2019-04-25T00:22:51.521Z,79.69
2019-04-25T00:23:51.613Z,79.83
2019-04-25T00:24:52.049Z,80.24
2019-04-25T00:25:51.392Z,80.14
2019-04-25T00:26:52.526Z,80.86
2019-04-25T00:27:51.665Z,80.79
2019-04-25T00:28:52.394Z,80.90
2019-04-25T00:29:51.684Z,81.41
2019-04-25T00:30:52.301Z,81.30
2019-04-25T00:31:51.381Z,81.30
2019-04-25T00:32:51.264Z,81.62
2019-04-25T00:33:53.250Z,81.14
2019-04-25T00:34:51.789Z,80.63
2019-04-25T00:35:51.757Z,80.69
2019-04-25T00:36:51.524Z,80.83
2019-04-25T00:37:52.503Z,81.20
2019-04-25T00:38:52.349Z,80.93
2019-04-25T00:39:51.704Z,81.55
2019-04-25T00:40:52.486Z,81.55
2019-04-25T00:41:52.069Z,81.86
2019-04-25T00:42:53.432Z,82.37
2019-04-25T00:43:52.453Z,82.31
2019-04-25T00:44:51.556Z,82.51
2019-04-25T00:45:51.681Z,82.20
2019-04-25T00:46:54.870Z,82.41
2019-04-25T00:47:51.876Z,82.10
2019-04-25T00:48:51.750Z,81.90
2019-04-25T00:49:52.393Z,82.00
2019-04-25T00:50:52.088Z,81.28
2019-04-25T00:51:52.373Z,81.48
2019-04-25T00:52:53.248Z,81.18
2019-04-25T00:53:52.266Z,81.18
2019-04-25T00:54:52.599Z,81.59
2019-04-25T00:55:52.481Z,81.28
2019-04-25T00:56:52.751Z,81.07
2019-04-25T00:57:52.523Z,81.59
2019-04-25T00:58:52.851Z,81.28
2019-04-25T00:59:52.682Z,80.87
2019-04-25T01:00:51.135Z,80.77
2019-04-25T01:01:51.869Z,80.66
2019-04-25T01:02:53.204Z,81.42
2019-04-25T01:03:52.966Z,81.21
2019-04-25T01:04:52.104Z,81.21
2019-04-25T01:05:53.282Z,81.42
2019-04-25T01:06:52.020Z,81.62
2019-04-25T01:07:52.446Z,81.21
2019-04-25T01:08:53.249Z,81.11
2019-04-25T01:09:52.465Z,81.97
2019-04-25T01:10:52.283Z,81.76
2019-04-25T01:11:52.342Z,81.97
2019-04-25T01:12:52.314Z,82.07
2019-04-25T01:13:52.298Z,81.87
2019-04-25T01:14:52.516Z,82.59
2019-04-25T01:15:52.562Z,81.76
2019-04-25T01:16:52.685Z,81.76
2019-04-25T01:17:51.495Z,81.76
2019-04-25T01:18:50.943Z,82.42
2019-04-25T01:19:51.018Z,82.93
2019-04-25T01:20:51.179Z,82.32
2019-04-25T01:21:51.206Z,83.14
2019-04-25T01:22:51.364Z,83.35
2019-04-25T01:23:51.459Z,83.28
2019-04-25T01:24:51.450Z,83.18
2019-04-25T01:25:51.574Z,83.18
2019-04-25T01:26:50.661Z,82.87
2019-04-25T01:27:50.667Z,82.87
2019-04-25T01:28:50.668Z,83.80
2019-04-25T01:29:50.629Z,83.73
2019-04-25T01:30:50.664Z,84.05
2019-04-25T01:31:50.605Z,84.25
2019-04-25T01:32:50.611Z,83.84
2019-04-25T01:33:50.591Z,83.39
2019-04-25T01:34:52.476Z,83.42
2019-04-25T01:35:50.615Z,83.59
2019-04-25T01:36:50.744Z,83.28
2019-04-25T01:37:51.124Z,83.28
2019-04-25T01:38:50.985Z,83.01
2019-04-25T01:39:51.098Z,83.84
2019-04-25T01:40:51.180Z,84.80
2019-04-25T01:41:51.312Z,84.56
2019-04-25T01:42:51.475Z,84.77
2019-04-25T01:43:53.856Z,84.87
2019-04-25T01:44:51.497Z,84.97
2019-04-25T01:45:50.468Z,84.45
2019-04-25T01:46:50.439Z,85.17
2019-04-25T01:47:50.441Z,84.91
2019-04-25T01:48:50.418Z,83.53
2019-04-25T01:49:50.411Z,83.84
2019-04-25T01:50:50.544Z,84.45
2019-04-25T01:51:50.412Z,83.53
2019-04-25T01:52:50.503Z,83.84
2019-04-25T01:53:50.568Z,83.63
2019-04-25T01:54:50.553Z,83.53
2019-04-25T01:55:55.926Z,83.94
2019-04-25T01:56:50.914Z,83.53
2019-04-25T01:57:50.920Z,84.14
2019-04-25T01:58:51.121Z,83.63
2019-04-25T01:59:51.357Z,83.63
2019-04-25T02:00:51.505Z,83.98
2019-04-25T02:01:51.026Z,85.01
2019-04-25T02:02:51.027Z,84.59
2019-04-25T02:03:50.431Z,84.70
2019-04-25T02:04:51.305Z,85.36
2019-04-25T02:05:51.296Z,84.80
2019-04-25T02:06:51.365Z,84.29
2019-04-25T02:07:51.527Z,83.77
2019-04-25T02:08:50.874Z,83.67
2019-04-25T02:09:50.932Z,83.77
2019-04-25T02:10:50.859Z,83.84
2019-04-25T02:11:50.933Z,83.36
2019-04-25T02:12:50.151Z,83.67
2019-04-25T02:13:51.316Z,83.47
2019-04-25T02:14:50.149Z,83.12
2019-04-25T02:15:50.663Z,83.32
2019-04-25T02:16:50.107Z,83.56
2019-04-25T02:17:51.096Z,83.87
2019-04-25T02:18:50.084Z,83.56
2019-04-25T02:19:50.098Z,83.47
2019-04-25T02:20:50.071Z,83.05
2019-04-25T02:21:50.051Z,83.05
2019-04-25T02:22:50.043Z,83.87
2019-04-25T02:23:50.033Z,83.15
2019-04-25T02:24:50.048Z,83.15
2019-04-25T02:25:50.026Z,83.47
2019-04-25T02:26:50.030Z,83.98
2019-04-25T02:27:49.987Z,83.67
2019-04-25T02:28:49.978Z,84.08
2019-04-25T02:29:49.966Z,83.67
2019-04-25T02:30:49.980Z,84.12
2019-04-25T02:31:49.959Z,84.64
2019-04-25T02:32:49.947Z,84.67
2019-04-25T02:33:49.920Z,85.60
2019-04-25T02:34:49.908Z,86.74
2019-04-25T02:35:49.916Z,86.32
2019-04-25T02:36:49.900Z,86.68
2019-04-25T02:37:49.900Z,86.78
2019-04-25T02:38:49.860Z,86.57
2019-04-25T02:39:49.854Z,86.26
2019-04-25T02:40:49.840Z,86.53
2019-04-25T02:41:49.850Z,86.78
2019-04-25T02:42:49.848Z,86.02
2019-04-25T02:43:49.835Z,85.71
2019-04-25T02:44:49.824Z,85.39
2019-04-25T02:45:49.832Z,85.50
2019-04-25T02:46:49.780Z,85.71
2019-04-25T02:47:49.766Z,86.78
2019-04-25T02:48:50.770Z,86.74
2019-04-25T02:49:49.765Z,86.02
2019-04-25T02:50:49.732Z,86.68
2019-04-25T02:51:49.780Z,86.78
2019-04-25T02:52:49.710Z,86.57
2019-04-25T02:53:49.701Z,86.57
2019-04-25T02:54:49.696Z,86.78
2019-04-25T02:55:49.694Z,87.08
2019-04-25T02:56:49.689Z,86.71
2019-04-25T02:57:49.675Z,86.78
2019-04-25T02:58:49.640Z,86.82
2019-04-25T02:59:49.636Z,87.02
2019-04-25T03:00:57.219Z,87.13
2019-04-25T03:01:49.632Z,86.71
2019-04-25T03:02:49.631Z,86.41
2019-04-25T03:03:49.593Z,86.57
2019-04-25T03:04:49.613Z,86.51
2019-04-25T03:05:49.585Z,86.61
2019-04-25T03:06:49.569Z,86.41
2019-04-25T03:07:49.547Z,86.26
2019-04-25T03:08:49.545Z,86.51
2019-04-25T03:09:49.525Z,87.23
2019-04-25T03:10:49.514Z,86.92
2019-04-25T03:11:49.540Z,87.44
2019-04-25T03:12:49.495Z,87.23
2019-04-25T03:13:49.498Z,87.95
2019-04-25T03:14:49.510Z,87.85
2019-04-25T03:15:52.614Z,87.44
2019-04-25T03:16:49.440Z,87.74
2019-04-25T03:17:49.465Z,87.44
2019-04-25T03:18:49.454Z,86.78
2019-04-25T03:19:49.407Z,86.41
2019-04-25T03:20:49.399Z,86.61
2019-04-25T03:21:49.388Z,86.51
2019-04-25T03:22:49.377Z,86.61
2019-04-25T03:23:49.407Z,86.41
2019-04-25T03:24:49.393Z,86.30
2019-04-25T03:25:49.342Z,87.23
2019-04-25T03:26:49.351Z,87.02
2019-04-25T03:27:49.318Z,87.74
2019-04-25T03:28:49.325Z,88.20
2019-04-25T03:29:49.354Z,87.89
2019-04-25T03:30:49.324Z,88.20
2019-04-25T03:31:49.276Z,88.82
2019-04-25T03:32:51.492Z,89.03
2019-04-25T03:33:49.254Z,89.23
2019-04-25T03:34:49.256Z,89.75
2019-04-25T03:35:49.259Z,89.65
2019-04-25T03:36:49.244Z,89.03
2019-04-25T03:37:49.208Z,88.92
2019-04-25T03:38:49.198Z,88.98
2019-04-25T03:39:49.192Z,88.92
2019-04-25T03:40:49.203Z,89.03
2019-04-25T03:41:49.183Z,88.20
2019-04-25T03:42:49.151Z,88.92
2019-04-25T03:43:49.155Z,89.23
2019-04-25T03:44:49.149Z,89.34
2019-04-25T03:45:49.313Z,90.06
2019-04-25T03:46:49.119Z,89.86
2019-04-25T03:47:49.122Z,89.86
2019-04-25T03:48:49.088Z,89.65
2019-04-25T03:49:49.074Z,89.75
2019-04-25T03:50:49.067Z,89.75
2019-04-25T03:51:49.085Z,89.44
2019-04-25T03:52:49.050Z,90.06
2019-04-25T03:53:49.052Z,90.89
2019-04-25T03:54:49.018Z,90.89
2019-04-25T03:55:49.010Z,91.96
2019-04-25T03:56:53.611Z,91.34
2019-04-25T03:57:49.006Z,91.40
2019-04-25T03:58:48.986Z,90.89
2019-04-25T03:59:48.982Z,90.47
2019-04-25T04:00:48.950Z,90.58
2019-04-25T04:01:48.961Z,90.58
2019-04-25T04:02:48.930Z,89.95
2019-04-25T04:03:48.934Z,89.44
2019-04-25T04:04:48.930Z,89.95
2019-04-25T04:05:48.919Z,89.75
2019-04-25T04:06:48.895Z,89.86
2019-04-25T04:07:48.877Z,90.02
2019-04-25T04:08:48.867Z,89.65
2019-04-25T04:09:48.867Z,89.61
2019-04-25T04:10:48.851Z,89.65
2019-04-25T04:11:48.870Z,89.71
2019-04-25T04:12:48.840Z,89.44
2019-04-25T04:13:48.811Z,89.65
2019-04-25T04:14:48.797Z,90.37
2019-04-25T04:15:48.811Z,90.47
2019-04-25T04:16:48.792Z,89.75
2019-04-25T04:17:48.773Z,89.50
2019-04-25T04:18:48.760Z,89.44
2019-04-25T04:19:48.745Z,89.19
2019-04-25T04:20:48.732Z,89.19
2019-04-25T04:21:48.734Z,88.57
2019-04-25T04:22:48.731Z,88.98
2019-04-25T04:23:48.709Z,88.57
2019-04-25T04:24:48.689Z,88.78
2019-04-25T04:25:48.683Z,88.68
2019-04-25T04:26:48.677Z,89.09
2019-04-25T04:27:48.696Z,88.98
2019-04-25T04:28:48.685Z,88.78
2019-04-25T04:29:48.631Z,88.84
2019-04-25T04:30:48.622Z,88.43
2019-04-25T04:31:48.609Z,88.78
2019-04-25T04:32:48.650Z,89.19
2019-04-25T04:33:48.615Z,88.89
2019-04-25T04:34:48.599Z,89.29
2019-04-25T04:35:48.565Z,89.61
2019-04-25T04:36:48.557Z,89.40
2019-04-25T04:37:48.541Z,89.61
2019-04-25T04:38:48.629Z,89.34
2019-04-25T04:39:48.542Z,89.44
2019-04-25T04:40:49.293Z,89.23
2019-04-25T04:41:48.508Z,89.75
2019-04-25T04:42:48.489Z,89.86
2019-04-25T04:43:48.479Z,90.58
2019-04-25T04:44:48.501Z,90.37
2019-04-25T04:45:48.468Z,91.16
2019-04-25T04:46:48.442Z,90.95
2019-04-25T04:47:48.430Z,90.95
2019-04-25T04:48:48.426Z,90.22
2019-04-25T04:49:48.418Z,90.33
2019-04-25T04:50:48.411Z,90.12
2019-04-25T04:51:48.403Z,90.43
2019-04-25T04:52:48.377Z,90.43
2019-04-25T04:53:48.364Z,90.64
2019-04-25T04:54:48.359Z,90.53
2019-04-25T04:55:48.358Z,90.84
2019-04-25T04:56:48.352Z,90.84
2019-04-25T04:57:48.319Z,91.46
2019-04-25T04:58:48.326Z,92.13
2019-04-25T04:59:48.296Z,92.33
2019-04-25T05:00:48.292Z,92.54
2019-04-25T05:01:48.307Z,93.01
2019-04-25T05:02:48.275Z,93.84
2019-04-25T05:03:48.280Z,93.53
2019-04-25T05:04:48.243Z,92.50
2019-04-25T05:05:48.232Z,93.43
2019-04-25T05:06:48.252Z,93.22
2019-04-25T05:07:48.224Z,92.40
2019-04-25T05:08:48.208Z,91.94
2019-04-25T05:09:48.189Z,92.46
2019-04-25T05:10:48.179Z,91.01
2019-04-25T05:11:48.165Z,90.80
2019-04-25T05:12:48.297Z,91.22
2019-04-25T05:13:48.156Z,91.63
2019-04-25T05:14:48.150Z,91.32
2019-04-25T05:15:48.119Z,90.35
2019-04-25T05:16:49.557Z,90.66
2019-04-25T05:17:48.138Z,90.45
2019-04-25T05:18:48.097Z,90.76
2019-04-25T05:19:48.085Z,91.03
2019-04-25T05:20:48.088Z,90.61
2019-04-25T05:21:48.054Z,90.31
2019-04-25T05:22:48.057Z,90.31
2019-04-25T05:23:48.030Z,90.72
2019-04-25T05:24:48.033Z,90.57
2019-04-25T05:25:48.021Z,91.40
2019-04-25T05:26:48.026Z,90.78
2019-04-25T05:27:59.642Z,90.37
2019-04-25T05:28:47.997Z,89.85
2019-04-25T05:29:47.961Z,90.47
2019-04-25T05:30:47.976Z,90.57
2019-04-25T05:31:47.955Z,90.57
2019-04-25T05:32:48.105Z,90.01
2019-04-25T05:33:47.971Z,90.47
2019-04-25T05:34:49.324Z,90.94
2019-04-25T05:35:47.905Z,90.33
2019-04-25T05:36:47.900Z,90.08
2019-04-25T05:37:47.891Z,90.49
2019-04-25T05:38:47.908Z,89.42
2019-04-25T05:39:47.858Z,88.66
2019-04-25T05:40:47.840Z,88.56
2019-04-25T05:41:47.847Z,88.56
2019-04-25T05:42:47.830Z,87.38
2019-04-25T05:43:47.823Z,87.18
2019-04-25T05:44:47.805Z,87.01
2019-04-25T05:45:47.798Z,87.07
2019-04-25T05:46:47.821Z,87.69
2019-04-25T05:47:47.790Z,87.52
2019-04-25T05:48:47.773Z,87.38
2019-04-25T05:49:47.772Z,86.87
2019-04-25T05:50:47.731Z,87.18
2019-04-25T05:51:47.724Z,86.87
2019-04-25T05:52:47.707Z,86.52
2019-04-25T05:53:47.713Z,86.42
2019-04-25T05:54:47.711Z,86.62
2019-04-25T05:55:47.697Z,86.27
2019-04-25T05:56:47.664Z,86.48
2019-04-25T05:57:50.126Z,86.75
2019-04-25T05:58:47.646Z,86.44
2019-04-25T05:59:47.653Z,86.65
2019-04-25T06:00:47.658Z,86.71
2019-04-25T06:01:47.603Z,86.71
2019-04-25T06:02:47.592Z,86.36
2019-04-25T06:03:47.585Z,86.05
2019-04-25T06:04:47.575Z,85.74
2019-04-25T06:05:47.577Z,86.36
2019-04-25T06:06:47.594Z,86.25
2019-04-25T06:07:47.573Z,86.15
2019-04-25T06:08:47.534Z,85.50
2019-04-25T06:09:47.520Z,84.58
2019-04-25T06:10:47.518Z,84.33
2019-04-25T06:11:47.524Z,84.64
2019-04-25T06:12:47.504Z,84.53
2019-04-25T06:13:47.474Z,83.78
2019-04-25T06:14:47.477Z,83.58
2019-04-25T06:15:47.455Z,82.86
2019-04-25T06:16:47.463Z,81.49
2019-04-25T06:17:47.450Z,81.49
2019-04-25T06:18:47.443Z,80.53
2019-04-25T06:19:47.411Z,80.63
2019-04-25T06:20:47.403Z,80.53
2019-04-25T06:21:47.399Z,78.49
2019-04-25T06:22:47.399Z,77.63
2019-04-25T06:23:47.379Z,77.94
2019-04-25T06:24:47.353Z,76.26
2019-04-25T06:25:47.338Z,75.65
2019-04-25T06:26:47.341Z,75.55
2019-04-25T06:27:56.475Z,74.43
2019-04-25T06:28:53.676Z,70.30
2019-04-25T06:29:57.770Z,69.56
2019-04-25T06:30:48.286Z,69.21
2019-04-25T06:31:47.276Z,68.77
2019-04-25T06:32:47.361Z,69.79
2019-04-25T06:33:47.347Z,68.33
2019-04-25T06:34:47.257Z,65.78
2019-04-25T06:35:47.245Z,64.97
2019-04-25T06:36:47.223Z,65.04
2019-04-25T06:37:47.208Z,64.20
2019-04-25T06:38:47.222Z,63.28
2019-04-25T06:39:47.239Z,62.23
2019-04-25T06:40:47.197Z,62.13
2019-04-25T06:41:47.182Z,62.20
2019-04-25T06:42:47.156Z,62.51
2019-04-25T06:43:47.160Z,61.38
2019-04-25T06:44:47.154Z,61.49
2019-04-25T06:45:50.013Z,60.34
2019-04-25T06:46:47.131Z,61.15
2019-04-25T06:47:47.116Z,61.46
2019-04-25T06:48:47.085Z,60.21
2019-04-25T06:49:47.075Z,60.21
2019-04-25T06:50:47.061Z,59.39
2019-04-25T06:51:47.070Z,59.09
2019-04-25T06:52:47.061Z,58.69
2019-04-25T06:53:47.054Z,58.76
2019-04-25T06:54:47.030Z,59.16
2019-04-25T06:55:47.013Z,60.28
2019-04-25T06:56:47.085Z,56.90
2019-04-25T06:57:46.997Z,56.80
2019-04-25T06:58:46.990Z,58.73
2019-04-25T06:59:46.961Z,58.53
2019-04-25T07:00:58.144Z,57.48
2019-04-25T07:01:47.966Z,57.68
2019-04-25T07:02:46.941Z,57.59
2019-04-25T07:03:46.932Z,57.59
2019-04-25T07:04:46.925Z,56.16
2019-04-25T07:05:46.891Z,56.26
2019-04-25T07:06:49.402Z,54.44
2019-04-25T07:07:46.890Z,51.37
2019-04-25T07:08:46.869Z,52.28
2019-04-25T07:09:46.898Z,52.05
2019-04-25T07:10:46.872Z,52.46
2019-04-25T07:11:48.181Z,53.37
2019-04-25T07:12:46.836Z,52.05
2019-04-25T07:13:46.811Z,51.85
2019-04-25T07:14:46.803Z,52.46
2019-04-25T07:15:46.801Z,52.15
2019-04-25T07:16:46.806Z,51.32
2019-04-25T07:17:46.757Z,51.95
2019-04-25T07:18:46.749Z,51.42
2019-04-25T07:19:46.746Z,53.04
2019-04-25T07:20:46.743Z,51.52
2019-04-25T07:21:46.742Z,50.68
2019-04-25T07:22:46.742Z,52.20
2019-04-25T07:23:46.705Z,50.79
2019-04-25T07:24:46.678Z,51.07
2019-04-25T07:25:46.679Z,52.11
2019-04-25T07:26:46.677Z,50.66
2019-04-25T07:27:46.700Z,50.96
2019-04-25T07:28:46.635Z,50.86
2019-04-25T07:29:46.623Z,50.54
2019-04-25T07:30:51.947Z,51.45
2019-04-25T07:31:47.619Z,51.62
2019-04-25T07:32:46.611Z,51.35
2019-04-25T07:33:46.623Z,50.71
2019-04-25T07:34:46.567Z,50.82
2019-04-25T07:35:46.589Z,51.73
2019-04-25T07:36:46.589Z,51.93
2019-04-25T07:37:46.544Z,51.73
2019-04-25T07:38:46.556Z,52.13
2019-04-25T07:39:46.522Z,51.45
2019-04-25T07:40:46.500Z,51.32
2019-04-25T07:41:46.498Z,52.54
2019-04-25T07:42:46.497Z,52.03
2019-04-25T07:43:46.485Z,51.53
2019-04-25T07:44:52.551Z,51.02
2019-04-25T07:45:46.447Z,50.29
2019-04-25T07:46:46.455Z,50.89
2019-04-25T07:47:46.452Z,50.09
2019-04-25T07:48:46.428Z,50.37
2019-04-25T07:49:46.419Z,51.48
2019-04-25T07:50:46.414Z,51.50
2019-04-25T07:51:46.375Z,50.99
2019-04-25T07:52:46.369Z,52.31
2019-04-25T07:53:46.351Z,51.81
2019-04-25T07:54:46.352Z,52.01
2019-04-25T07:55:46.365Z,52.92
2019-04-25T07:56:46.323Z,52.72
2019-04-25T07:57:46.356Z,52.51
2019-04-25T07:58:52.201Z,52.41
2019-04-25T07:59:46.291Z,51.30
2019-04-25T08:00:46.288Z,52.61
2019-04-25T08:01:46.290Z,51.78
2019-04-25T08:02:46.316Z,50.67
2019-04-25T08:03:46.238Z,50.54
2019-04-25T08:04:46.239Z,50.74
2019-04-25T08:05:46.229Z,50.84
2019-04-25T08:06:46.218Z,50.72
2019-04-25T08:07:46.211Z,50.72
2019-04-25T08:08:46.193Z,50.72
2019-04-25T08:09:46.178Z,50.59
2019-04-25T08:10:46.211Z,51.23
2019-04-25T08:11:46.174Z,52.03
2019-04-25T08:12:47.473Z,50.62
2019-04-25T08:13:46.155Z,51.53
2019-04-25T08:14:46.116Z,50.39
2019-04-25T08:15:46.107Z,50.59
2019-04-25T08:16:46.127Z,50.39
2019-04-25T08:17:46.110Z,49.96
2019-04-25T08:18:46.088Z,49.96
2019-04-25T08:19:46.108Z,50.57
2019-04-25T08:20:46.542Z,49.16
2019-04-25T08:21:46.067Z,49.16
2019-04-25T08:22:55.445Z,48.45
2019-04-25T08:23:46.040Z,49.87
2019-04-25T08:24:46.091Z,48.83
2019-04-25T08:25:46.096Z,50.04
2019-04-25T08:26:45.985Z,49.13
2019-04-25T08:27:45.993Z,48.22
2019-04-25T08:28:54.440Z,48.43
2019-04-25T08:29:46.579Z,48.91
2019-04-25T08:30:45.955Z,49.01
2019-04-25T08:31:45.981Z,47.40
2019-04-25T08:32:45.922Z,47.19
2019-04-25T08:33:46.542Z,46.87
2019-04-25T08:34:45.928Z,47.45
2019-04-25T08:36:03.414Z,47.58
2019-04-25T08:36:45.900Z,47.35
2019-04-25T08:37:45.864Z,47.05
2019-04-25T08:38:45.856Z,47.86
2019-04-25T08:39:45.846Z,47.33
2019-04-25T08:40:45.855Z,45.92
2019-04-25T08:41:45.923Z,44.69
2019-04-25T08:42:45.828Z,45.00
2019-04-25T08:43:45.831Z,45.19
2019-04-25T08:44:45.786Z,45.09
2019-04-25T08:45:45.776Z,45.70
2019-04-25T08:46:48.584Z,45.09
2019-04-25T08:47:45.782Z,44.89
2019-04-25T08:48:45.793Z,45.27
2019-04-25T08:49:46.140Z,44.67
2019-04-25T08:50:45.720Z,44.67
2019-04-25T08:51:45.703Z,46.98
2019-04-25T08:52:45.715Z,45.87
2019-04-25T08:53:45.700Z,45.27
2019-04-25T08:54:47.599Z,46.98
2019-04-25T08:55:45.812Z,45.78
2019-04-25T08:56:45.662Z,44.55
2019-04-25T08:57:45.646Z,43.24
2019-04-25T08:58:45.654Z,43.04
2019-04-25T08:59:52.212Z,43.74
2019-04-25T09:00:57.855Z,44.35
2019-04-25T09:01:46.608Z,45.05
2019-04-25T09:02:45.593Z,44.93
2019-04-25T09:03:45.588Z,44.63
2019-04-25T09:04:45.574Z,45.01
2019-04-25T09:05:46.300Z,44.60
2019-04-25T09:06:45.552Z,44.79
2019-04-25T09:07:45.542Z,44.99
2019-04-25T09:08:46.588Z,44.68
2019-04-25T09:09:45.518Z,42.97
2019-04-25T09:10:45.514Z,43.08
2019-04-25T09:11:46.890Z,42.68
2019-04-25T09:12:45.475Z,42.96
2019-04-25T09:13:45.467Z,40.25
2019-04-25T09:14:46.484Z,42.05
2019-04-25T09:15:45.826Z,41.96
2019-04-25T09:16:45.452Z,40.73
2019-04-25T09:17:47.118Z,41.43
2019-04-25T09:18:46.466Z,41.53
2019-04-25T09:19:45.419Z,41.74
2019-04-25T09:20:46.612Z,40.83
2019-04-25T09:21:49.141Z,40.63
2019-04-25T09:22:45.626Z,42.03
2019-04-25T09:23:45.351Z,41.43
2019-04-25T09:24:45.431Z,41.83
2019-04-25T09:25:46.193Z,41.23
2019-04-25T09:26:45.468Z,42.13
2019-04-25T09:27:45.867Z,41.11
2019-04-25T09:28:46.616Z,40.71
2019-04-25T09:29:46.322Z,41.41
2019-04-25T09:30:45.937Z,41.11
2019-04-25T09:31:46.080Z,40.59
2019-04-25T09:32:45.769Z,41.09
2019-04-25T09:33:46.644Z,41.39
2019-04-25T09:34:45.942Z,40.99
2019-04-25T09:35:45.925Z,41.17
2019-04-25T09:36:45.204Z,40.87
2019-04-25T09:37:46.186Z,40.77
2019-04-25T09:38:48.462Z,39.35
2019-04-25T09:39:45.487Z,39.45
2019-04-25T09:40:45.709Z,38.55
2019-04-25T09:41:45.193Z,38.77
2019-04-25T09:42:45.426Z,40.17
2019-04-25T09:43:46.612Z,40.77
2019-04-25T09:44:45.235Z,41.07
2019-04-25T09:45:46.065Z,41.38
2019-04-25T09:46:46.902Z,40.47
2019-04-25T09:47:45.770Z,40.75
2019-04-25T09:48:45.627Z,41.75
2019-04-25T09:49:45.066Z,40.27
2019-04-25T09:50:45.453Z,41.38
2019-04-25T09:51:45.790Z,44.18
2019-04-25T09:52:47.087Z,40.97
2019-04-25T09:53:50.040Z,41.35
2019-04-25T09:54:45.241Z,43.16
2019-04-25T09:55:47.211Z,44.26
2019-04-25T09:56:46.008Z,41.25
2019-04-25T09:57:45.936Z,41.83
2019-04-25T09:58:48.328Z,41.15
2019-04-25T09:59:45.350Z,40.33
2019-04-25T10:00:45.921Z,40.43
2019-04-25T10:01:44.945Z,40.73
2019-04-25T10:02:44.958Z,40.93
2019-04-25T10:03:45.709Z,40.23
2019-04-25T10:04:46.325Z,40.83
2019-04-25T10:05:44.951Z,40.53
2019-04-25T10:06:45.894Z,40.13
2019-04-25T10:07:46.209Z,39.41
2019-04-25T10:08:45.410Z,41.02
2019-04-25T10:09:44.865Z,41.33
2019-04-25T10:10:44.917Z,41.33
2019-04-25T10:11:45.425Z,41.13
2019-04-25T10:12:45.334Z,41.02
2019-04-25T10:13:44.850Z,41.11
2019-04-25T10:14:47.600Z,39.89
2019-04-25T10:15:45.668Z,38.70
2019-04-25T10:16:45.587Z,39.00
2019-04-25T10:17:45.284Z,38.89
2019-04-25T10:18:45.794Z,39.01
2019-04-25T10:19:45.571Z,40.31
2019-04-25T10:20:46.038Z,40.30
2019-04-25T10:21:45.214Z,40.17
2019-04-25T10:22:45.672Z,38.28
2019-04-25T10:23:46.473Z,39.28
2019-04-25T10:24:56.498Z,38.38
2019-04-25T10:25:45.097Z,40.28
2019-04-25T10:26:45.173Z,40.08
2019-04-25T10:27:47.866Z,40.17
2019-04-25T10:28:45.225Z,40.37
2019-04-25T10:29:51.589Z,40.97
2019-04-25T10:30:45.628Z,40.78
2019-04-25T10:31:45.212Z,40.16
2019-04-25T10:32:45.382Z,40.75
2019-04-25T10:33:46.691Z,42.46
2019-04-25T10:34:45.876Z,40.56
2019-04-25T10:35:51.931Z,38.04
2019-04-25T10:36:45.406Z,38.44
2019-04-25T10:37:45.581Z,38.44
2019-04-25T10:38:54.485Z,38.52
2019-04-25T10:39:45.954Z,36.43
2019-04-25T10:40:45.855Z,37.23
2019-04-25T10:41:46.162Z,36.43
2019-04-25T10:42:47.701Z,35.72
2019-04-25T10:43:44.487Z,34.93
2019-04-25T10:44:46.164Z,35.44
2019-04-25T10:45:46.010Z,34.03
2019-04-25T10:46:46.930Z,34.13
2019-04-25T10:47:45.258Z,32.43
2019-04-25T10:48:44.420Z,32.93
2019-04-25T10:49:44.997Z,33.33
2019-04-25T10:50:45.927Z,32.03
2019-04-25T10:51:45.689Z,32.33
2019-04-25T10:52:45.796Z,32.73
2019-04-25T10:53:46.030Z,32.43
2019-04-25T10:54:45.401Z,31.04
2019-04-25T10:55:45.468Z,31.82
2019-04-25T10:56:45.832Z,32.02
2019-04-25T10:57:45.491Z,32.20
2019-04-25T10:58:46.372Z,31.40
2019-04-25T10:59:55.211Z,32.10
2019-04-25T11:00:47.315Z,32.18
2019-04-25T11:01:45.745Z,31.59
2019-04-25T11:02:45.480Z,30.79
2019-04-25T11:03:45.448Z,29.78
2019-04-25T11:04:47.027Z,30.77
2019-04-25T11:05:45.153Z,29.98
2019-04-25T11:06:45.562Z,31.27
2019-04-25T11:07:44.529Z,29.38
2019-04-25T11:08:44.924Z,29.88
2019-04-25T11:09:45.582Z,30.58
2019-04-25T11:10:46.991Z,32.17
2019-04-25T11:11:44.191Z,30.98
2019-04-25T11:12:44.526Z,32.07
2019-04-25T11:13:45.201Z,30.18
2019-04-25T11:14:44.358Z,30.29
2019-04-25T11:15:44.877Z,29.18
2019-04-25T11:16:45.537Z,29.78
2019-04-25T11:17:45.850Z,27.99
2019-04-25T11:18:45.088Z,27.40
2019-04-25T11:19:44.508Z,28.49
2019-04-25T11:20:44.626Z,27.39
2019-04-25T11:21:45.312Z,27.59
2019-04-25T11:22:45.077Z,28.40
2019-04-25T11:23:44.958Z,29.90
2019-04-25T11:24:44.035Z,28.90
2019-04-25T11:25:45.276Z,28.50
2019-04-25T11:26:47.187Z,28.50
2019-04-25T11:27:47.033Z,29.00
2019-04-25T11:28:45.411Z,28.88
2019-04-25T11:29:45.953Z,29.88
2019-04-25T11:30:45.392Z,30.28
2019-04-25T11:31:45.773Z,30.28
2019-04-25T11:32:45.170Z,28.38
2019-04-25T11:33:44.024Z,28.39
2019-04-25T11:34:46.113Z,28.19
2019-04-25T11:35:46.471Z,28.27
2019-04-25T11:36:44.117Z,28.99
2019-04-25T11:37:43.914Z,28.38
2019-04-25T11:38:43.862Z,29.17
2019-04-25T11:39:45.035Z,29.17
2019-04-25T11:40:47.854Z,28.66
2019-04-25T11:41:46.071Z,28.87
2019-04-25T11:42:45.901Z,28.26
2019-04-25T11:43:46.255Z,29.55
2019-04-25T11:44:45.462Z,28.96
2019-04-25T11:45:43.782Z,29.55
2019-04-25T11:46:45.333Z,28.36
2019-04-25T11:47:45.943Z,28.16
2019-04-25T11:48:45.064Z,28.16
2019-04-25T11:49:46.367Z,28.64
2019-04-25T11:50:48.181Z,27.75
2019-04-25T11:51:45.794Z,28.64
2019-04-25T11:52:43.794Z,28.74
2019-04-25T11:53:45.098Z,27.55
2019-04-25T11:54:45.726Z,27.95
2019-04-25T11:55:44.826Z,27.83
2019-04-25T11:56:45.787Z,28.33
2019-04-25T11:57:47.317Z,27.44
2019-04-25T11:58:45.662Z,27.83
2019-04-25T11:59:45.305Z,27.04
2019-04-25T12:00:45.119Z,27.83
2019-04-25T12:01:46.140Z,28.33
2019-04-25T12:02:44.045Z,27.03
2019-04-25T12:03:45.370Z,26.53
2019-04-25T12:04:45.499Z,27.72
2019-04-25T12:05:45.818Z,26.53
2019-04-25T12:06:46.041Z,27.21
2019-04-25T12:07:45.355Z,27.11
2019-04-25T12:08:46.463Z,25.72
2019-04-25T12:09:45.784Z,25.52
2019-04-25T12:10:45.778Z,25.82
2019-04-25T12:11:46.511Z,25.54
2019-04-25T12:12:46.279Z,26.52
2019-04-25T12:13:45.918Z,27.21
2019-04-25T12:14:45.076Z,24.82
2019-04-25T12:15:46.098Z,24.93
2019-04-25T12:16:46.059Z,25.43
2019-04-25T12:17:43.860Z,27.10
2019-04-25T12:18:45.220Z,25.31
2019-04-25T12:19:43.410Z,25.71
2019-04-25T12:20:44.694Z,25.61
2019-04-25T12:21:44.502Z,25.91
2019-04-25T12:22:44.701Z,26.20
2019-04-25T12:23:46.150Z,26.20
2019-04-25T12:24:44.551Z,25.80
2019-04-25T12:25:45.304Z,25.49
2019-04-25T12:26:45.259Z,26.28
2019-04-25T12:27:45.482Z,25.79
2019-04-25T12:28:43.341Z,26.07
2019-04-25T12:29:43.988Z,24.19
2019-04-25T12:30:43.957Z,23.19
2019-04-25T12:31:45.509Z,22.49
2019-04-25T12:32:44.180Z,24.46
2019-04-25T12:33:45.028Z,22.18
2019-04-25T12:34:43.274Z,21.00
2019-04-25T12:35:43.790Z,22.39
2019-04-25T12:36:44.364Z,20.70
2019-04-25T12:37:44.184Z,21.50
2019-04-25T12:38:45.083Z,22.00
2019-04-25T12:39:43.197Z,21.51
2019-04-25T12:40:43.510Z,21.81
2019-04-25T12:41:44.127Z,23.10
2019-04-25T12:42:44.472Z,22.00
2019-04-25T12:43:43.861Z,22.78
2019-04-25T12:44:43.482Z,22.59
2019-04-25T12:45:43.462Z,22.89
2019-04-25T12:46:43.601Z,22.88
2019-04-25T12:47:43.124Z,21.49
2019-04-25T12:48:43.284Z,22.18
2019-04-25T12:49:43.813Z,21.00
2019-04-25T12:50:43.945Z,20.89
2019-04-25T12:51:43.067Z,21.49
2019-04-25T12:52:43.321Z,21.10